Date,TemperatureHighF,TemperatureAvgF,TemperatureLowF,DewpointHighF,DewpointAvgF,DewpointLowF,HumidityHigh,HumidityAvg,HumidityLow,PressureMaxIn,PressureMinIn,WindSpeedMaxMPH,WindSpeedAvgMPH,GustSpeedMaxMPH,PrecipitationSumIn
2013-5-1,69.1,54.0,36.9,42.5,35.9,28.7,87,55,25,30.38,30.23,15,2,15,0.00
2013-5-2,72.5,56.4,38.2,47.1,41.1,36.4,97,61,30,30.37,30.23,11,1,11,0.00
2013-5-3,64.8,54.9,44.5,42.0,38.9,33.8,83,57,32,30.33,30.24,16,2,16,0.00
2013-5-4,69.4,54.7,38.6,47.4,41.1,37.0,96,64,34,30.28,30.11,13,2,13,0.00
2013-5-5,65.3,52.0,39.9,44.6,40.2,36.6,91,66,39,30.19,30.09,14,2,14,0.00
2013-5-6,69.1,54.4,41.3,54.0,47.4,37.7,94,79,55,30.15,30.03,13,2,13,0.00
2013-5-7,71.6,60.4,51.3,61.9,55.0,49.5,97,83,61,30.05,29.96,14,3,14,0.20
2013-5-8,70.9,61.4,57.3,62.4,58.4,53.8,100,90,68,29.96,29.83,13,2,13,0.02
2013-5-9,70.8,60.8,55.3,58.5,55.1,53.0,98,83,55,29.89,29.82,11,1,11,0.00
2013-5-10,81.6,64.0,51.4,61.7,55.2,50.3,99,77,35,29.92,29.80,15,1,15,0.02
2013-5-11,72.7,63.9,59.8,65.6,61.5,58.3,100,92,71,29.83,29.62,23,1,23,0.54
2013-5-12,63.4,57.2,45.2,58.7,41.6,24.5,96,60,27,29.89,29.62,23,3,23,0.06
2013-5-13,55.3,46.1,36.3,37.2,30.8,22.0,91,58,29,30.04,29.89,18,2,18,0.00
2013-5-14,61.5,48.0,32.7,38.2,30.9,24.8,93,57,27,30.08,29.95,13,2,13,0.00
2013-5-15,72.7,59.9,44.9,57.6,49.3,35.7,86,69,54,29.99,29.62,14,1,14,0.00
2013-5-16,80.3,66.4,55.3,64.7,58.3,52.6,97,77,46,29.77,29.63,11,1,11,0.20
2013-5-17,75.6,62.3,52.5,52.7,44.7,38.5,85,55,27,30.11,29.77,12,1,12,0.00
2013-5-18,67.1,59.1,52.6,54.9,51.2,44.8,91,76,58,30.19,30.10,12,1,12,0.00
2013-5-19,61.5,58.4,55.9,60.9,57.7,54.3,100,97,91,30.18,30.06,11,2,11,0.00
2013-5-20,79.4,66.9,57.0,68.2,62.5,56.7,99,87,63,30.07,29.88,10,1,10,0.00
2013-5-21,84.5,73.2,60.4,70.9,66.3,59.5,99,81,58,29.89,29.77,13,1,13,0.00
2013-5-22,88.4,75.5,66.0,73.1,68.3,63.7,98,81,48,29.83,29.73,13,1,13,0.00
2013-5-23,77.7,71.4,63.7,71.2,67.6,61.2,95,88,70,29.80,29.67,15,2,15,1.28
2013-5-24,63.4,53.9,45.4,62.8,49.6,36.6,99,86,67,29.95,29.62,21,2,21,0.30
2013-5-25,61.8,52.5,45.5,40.1,36.8,31.7,79,57,35,29.98,29.90,23,3,24,0.02
2013-5-26,70.8,56.8,43.6,42.8,37.0,32.2,74,50,25,30.13,29.94,22,2,22,0.00
2013-5-27,73.3,57.6,38.5,46.9,40.9,34.5,95,59,29,30.17,30.06,12,1,12,0.00
2013-5-28,63.9,57.7,48.9,62.4,54.8,45.8,98,90,75,30.11,29.99,7,0,7,0.56
2013-5-29,89.7,72.2,58.3,71.2,63.1,57.8,99,77,40,30.00,29.89,13,1,13,0.02
2013-5-30,92.1,79.2,66.3,67.8,64.8,60.9,94,65,36,30.06,29.95,8,1,13,0.00
2013-5-31,92.9,76.9,65.3,70.3,64.4,56.8,96,69,33,30.05,29.93,13,1,13,0.00